Miguelturra, Spain
Current Conditions -  °F | °C
As of 6:00 PM on Thursday 23 Oct 2014 (Local Time) from LEAO Reporting Station
Clear Clear  
Wind Chill: 77°   Ceiling: Unl
Heat Index: 77°   Visibility: 6mi
Dew Point: 30°   Wind: 6mph
Humidity: 18%   Direction: 20°NNE
Pressure: 30.18"   Gusts: NA
Location:  38.96°N, 3.89°W
Report Text: LEAO 231600Z 02005KT 330V060 CAVOK 25/M01 Q1022
Loading
Personal Weather Stations






























Interactive Weather Map New forecast layout! Learn more

10-Day Weather Forecast

Advertisements
Track Severe Weather on mobile